Date,TemperatureHighF,TemperatureAvgF,TemperatureLowF,DewpointHighF,DewpointAvgF,DewpointLowF,HumidityHigh,HumidityAvg,HumidityLow,PressureMaxIn,PressureMinIn,WindSpeedMaxMPH,WindSpeedAvgMPH,GustSpeedMaxMPH,PrecipitationSumIn
2013-2-1,33,28,24,16,13,8,65,53,37,30.16,29.70,10,3,10,0.00
2013-2-2,32,25,19,18,12,7,76,57,38,30.23,29.99,9,2,9,0.00
2013-2-3,36,26,20,24,19,15,85,73,57,29.99,29.72,6,1,6,0.04
2013-2-4,33,27,22,21,13,9,78,55,40,29.90,29.73,11,3,11,0.00
2013-2-5,32,29,26,26,22,14,86,75,56,29.91,29.82,4,1,4,0.01
2013-2-6,41,33,25,27,21,6,89,64,37,30.29,29.84,9,2,9,0.01
2013-2-7,34,28,21,21,12,7,67,53,42,30.45,30.26,4,1,4,0.00
2013-2-8,34,32,28,31,28,21,93,84,66,30.26,29.57,8,2,8,0.07
2013-2-9,34,28,20,26,19,7,91,72,46,30.27,29.68,9,2,9,0.12
2013-2-10,41,24,10,23,13,3,77,64,44,30.42,30.25,4,0,4,0.05
2013-2-11,42,34,27,38,31,20,92,86,76,30.26,29.59,2,0,2,0.05
2013-2-12,47,40,31,35,29,23,92,66,47,29.90,29.64,8,2,8,0.00
2013-2-13,47,35,23,31,26,19,88,71,52,29.88,29.61,5,1,5,0.02
2013-2-14,49,37,28,33,29,25,90,75,47,29.92,29.64,7,1,7,0.03
2013-2-15,56,41,31,38,32,26,87,73,49,29.93,29.82,9,1,9,0.00
2013-2-16,41,36,31,34,26,15,89,70,52,29.90,29.66,6,2,6,0.06
2013-2-17,34,27,18,16,7,1,54,43,30,29.93,29.58,14,5,14,0.00
2013-2-18,38,26,17,15,8,2,55,46,30,30.15,29.93,8,3,8,0.00
2013-2-19,48,37,24,40,27,13,88,69,51,30.12,29.59,12,2,12,0.28
2013-2-20,37,31,25,26,16,10,65,53,41,29.90,29.64,12,4,12,0.00
2013-2-21,36,28,24,16,13,11,65,53,42,30.21,29.88,10,4,10,0.00
2013-2-22,41,32,24,28,22,14,73,65,52,30.33,30.18,6,1,6,0.00
2013-2-23,42,37,34,39,34,28,92,87,73,30.20,29.74,6,1,6,0.10
2013-2-24,48,39,32,39,32,23,93,76,54,29.89,29.65,9,2,9,0.02
2013-2-25,46,38,26,30,26,21,83,65,49,30.16,29.89,5,1,5,0.00
2013-2-26,45,37,28,36,30,23,88,76,65,30.21,29.82,11,2,11,0.10
2013-2-27,47,42,36,44,39,33,92,90,82,29.83,29.40,16,4,16,0.58
2013-2-28,51,43,38,41,35,31,93,76,56,29.54,29.45,5,1,5,0.00